Four Marks, United Kingdom
Current Conditions -  °F | °C
As of 9:50 PM on Tuesday 21 Oct 2014 (Local Time) from EGVO Reporting Station
Clear Clear  
Wind Chill: 39°   Ceiling: Unl
Heat Index: 46°   Visibility: 6mi
Dew Point: 34°   Wind: 17mph
Humidity: 62%   Direction: 280°W
Pressure: 30.12"   Gusts: NA
Location:  51.11°N, 1.05°W
Report Text: EGVO 212050Z 28015KT CAVOK 08/01 Q1020 BLU NOSIG
Loading
Personal Weather Stations






























Interactive Weather Map
Tropical Storm Tracking
New forecast layout! Learn more

10-Day Weather Forecast

Advertisements
Track Severe Weather on mobile